createdAt,value
2019-01-27T00:00:25.806Z,39.97
2019-01-27T00:03:02.840Z,41.27
2019-01-27T00:05:32.915Z,32.93
2019-01-27T00:08:02.457Z,37.20
2019-01-27T00:10:32.875Z,32.50
2019-01-27T00:13:03.689Z,37.53
2019-01-27T00:15:33.917Z,38.43
2019-01-27T00:18:05.449Z,33.10
2019-01-27T00:20:37.340Z,37.17
2019-01-27T00:23:09.360Z,33.33
2019-01-27T00:25:40.996Z,36.53
2019-01-27T00:28:11.591Z,34.87
2019-01-27T00:30:42.490Z,31.00
2019-01-27T00:33:13.039Z,32.37
2019-01-27T00:35:43.324Z,33.57
2019-01-27T00:38:13.924Z,29.23
2019-01-27T00:40:45.253Z,27.60
2019-01-27T00:43:15.265Z,33.83
2019-01-27T00:45:45.674Z,29.47
2019-01-27T00:48:16.070Z,32.53
2019-01-27T00:50:46.781Z,31.17
2019-01-27T00:53:17.877Z,28.20
2019-01-27T00:55:48.878Z,32.10
2019-01-27T00:58:19.178Z,29.63
2019-01-27T01:00:48.617Z,28.47
2019-01-27T01:03:18.657Z,28.30
2019-01-27T01:05:48.661Z,26.07
2019-01-27T01:08:18.665Z,25.43
2019-01-27T01:10:48.383Z,22.00
2019-01-27T01:13:18.106Z,22.83
2019-01-27T01:15:47.958Z,25.77
2019-01-27T01:18:17.807Z,23.37
2019-01-27T01:20:47.711Z,24.73
2019-01-27T01:23:17.490Z,23.50
2019-01-27T01:25:48.356Z,20.97
2019-01-27T01:28:18.109Z,22.87
2019-01-27T01:30:48.142Z,24.97
2019-01-27T01:33:17.999Z,23.67
2019-01-27T01:35:47.795Z,23.53
2019-01-27T01:38:17.674Z,20.13
2019-01-27T01:40:47.979Z,23.13
2019-01-27T01:43:17.864Z,23.20
2019-01-27T01:45:47.880Z,24.80
2019-01-27T01:48:17.673Z,24.20
2019-01-27T01:50:47.538Z,26.27
2019-01-27T01:53:16.907Z,24.27
2019-01-27T01:55:46.053Z,26.43
2019-01-27T01:58:15.760Z,23.67
2019-01-27T02:00:50.931Z,24.73
2019-01-27T02:03:20.405Z,25.90
2019-01-27T02:05:50.042Z,23.77
2019-01-27T02:08:19.891Z,24.60
2019-01-27T02:10:49.719Z,25.07
2019-01-27T02:13:19.616Z,25.37
2019-01-27T02:16:03.803Z,25.53
2019-01-27T02:18:34.078Z,27.87
2019-01-27T02:21:03.962Z,27.07
2019-01-27T02:23:33.285Z,26.53
2019-01-27T02:26:03.142Z,27.33
2019-01-27T02:28:32.978Z,29.73
2019-01-27T02:31:02.330Z,32.27
2019-01-27T02:33:32.364Z,32.97
2019-01-27T02:36:02.269Z,33.80
2019-01-27T02:38:32.547Z,34.67
2019-01-27T02:41:02.734Z,34.47
2019-01-27T02:43:32.661Z,37.67
2019-01-27T02:46:02.397Z,39.97
2019-01-27T02:48:32.157Z,36.07
2019-01-27T02:51:02.001Z,38.33
2019-01-27T02:53:31.755Z,41.33
2019-01-27T02:56:01.475Z,44.17
2019-01-27T02:58:31.187Z,39.90
2019-01-27T03:01:18.391Z,42.10
2019-01-27T03:03:48.030Z,41.30
2019-01-27T03:06:37.084Z,43.20
2019-01-27T03:09:16.669Z,40.27
2019-01-27T03:11:50.441Z,38.57
2019-01-27T03:14:21.116Z,45.57
2019-01-27T03:16:52.621Z,42.50
2019-01-27T03:19:22.666Z,45.80
2019-01-27T03:21:52.548Z,51.80
2019-01-27T03:24:22.288Z,48.47
2019-01-27T03:26:52.063Z,51.23
2019-01-27T03:29:21.734Z,53.40
2019-01-27T03:31:51.494Z,57.03
2019-01-27T03:34:30.491Z,58.17
2019-01-27T03:36:59.816Z,61.13
2019-01-27T03:39:29.522Z,53.27
2019-01-27T03:41:59.232Z,53.23
2019-01-27T03:44:28.664Z,51.33
2019-01-27T03:46:58.393Z,53.10
2019-01-27T03:49:28.172Z,58.00
2019-01-27T03:51:58.217Z,56.33
2019-01-27T03:54:28.208Z,62.23
2019-01-27T03:56:57.897Z,57.53
2019-01-27T03:59:27.714Z,56.47
2019-01-27T04:01:57.695Z,67.80
2019-01-27T04:04:26.984Z,66.27
2019-01-27T04:06:56.187Z,66.40
2019-01-27T04:09:25.912Z,63.17
2019-01-27T04:11:55.665Z,62.80
2019-01-27T04:14:24.895Z,62.17
2019-01-27T04:16:54.518Z,68.60
2019-01-27T04:19:24.213Z,67.13
2019-01-27T04:21:53.943Z,63.33
2019-01-27T04:24:23.638Z,65.17
2019-01-27T04:26:53.332Z,63.17
2019-01-27T04:29:23.063Z,60.80
2019-01-27T04:31:52.547Z,72.27
2019-01-27T04:34:22.188Z,69.10
2019-01-27T04:36:51.960Z,75.67
2019-01-27T04:39:21.671Z,68.37
2019-01-27T04:41:50.998Z,69.17
2019-01-27T04:44:20.656Z,68.23
2019-01-27T04:46:50.478Z,79.23
2019-01-27T04:49:19.761Z,72.57
2019-01-27T04:51:49.472Z,67.70
2019-01-27T04:54:18.884Z,70.50
2019-01-27T04:56:59.082Z,70.57
2019-01-27T04:59:29.382Z,71.70
2019-01-27T05:01:59.863Z,73.57
2019-01-27T05:04:35.103Z,70.47
2019-01-27T05:07:04.681Z,70.00
2019-01-27T05:09:34.422Z,73.57
2019-01-27T05:12:08.961Z,77.73
2019-01-27T05:14:38.528Z,77.87
2019-01-27T05:17:08.379Z,82.70
2019-01-27T05:19:38.205Z,75.80
2019-01-27T05:22:13.207Z,72.23
2019-01-27T05:24:43.063Z,79.47
2019-01-27T05:27:12.504Z,83.90
2019-01-27T05:29:42.400Z,79.43
2019-01-27T05:32:12.401Z,83.33
2019-01-27T05:34:41.805Z,88.70
2019-01-27T05:37:11.907Z,88.73
2019-01-27T05:39:41.843Z,81.00
2019-01-27T05:42:12.246Z,76.93
2019-01-27T05:44:42.167Z,81.73
2019-01-27T05:47:12.234Z,82.53
2019-01-27T05:49:42.212Z,85.93
2019-01-27T05:52:12.126Z,83.57
2019-01-27T05:54:42.496Z,80.77
2019-01-27T05:57:14.119Z,78.33
2019-01-27T06:00:05.850Z,79.80
2019-01-27T06:02:36.257Z,89.77
2019-01-27T06:05:06.860Z,82.60
2019-01-27T06:07:36.684Z,74.77
2019-01-27T06:10:08.598Z,75.10
2019-01-27T06:12:38.919Z,79.33
2019-01-27T06:15:10.892Z,71.80
2019-01-27T06:17:42.117Z,72.97
2019-01-27T06:20:12.896Z,69.07
2019-01-27T06:22:43.019Z,71.83
2019-01-27T06:25:14.771Z,73.53
2019-01-27T06:27:51.294Z,74.93
2019-01-27T06:30:23.353Z,69.33
2019-01-27T06:33:22.192Z,69.73
2019-01-27T06:35:52.195Z,61.30
2019-01-27T06:38:21.753Z,66.33
2019-01-27T06:40:54.776Z,68.77
2019-01-27T06:43:24.509Z,66.00
2019-01-27T06:45:54.482Z,69.07
2019-01-27T06:48:24.661Z,61.40
2019-01-27T06:50:54.207Z,59.07
2019-01-27T06:53:24.412Z,57.73
2019-01-27T06:55:53.879Z,60.83
2019-01-27T06:58:27.670Z,59.87
2019-01-27T07:01:08.273Z,65.10
2019-01-27T07:04:12.235Z,67.90
2019-01-27T07:07:01.194Z,63.90
2019-01-27T07:09:55.605Z,65.80
2019-01-27T07:12:34.522Z,66.83
2019-01-27T07:15:34.038Z,70.10
2019-01-27T07:18:14.256Z,68.30
2019-01-27T07:20:56.094Z,67.80
2019-01-27T07:23:38.910Z,61.17
2019-01-27T07:26:26.727Z,65.67
2019-01-27T07:29:12.587Z,69.50
2019-01-27T07:32:00.087Z,67.23
2019-01-27T07:34:37.603Z,63.43
2019-01-27T07:37:25.987Z,58.20
2019-01-27T07:40:30.656Z,64.80
2019-01-27T07:43:18.719Z,60.63
2019-01-27T07:45:53.021Z,64.77
2019-01-27T07:48:44.423Z,55.07
2019-01-27T07:51:20.566Z,57.47
2019-01-27T08:02:01.656Z,52.97
2019-01-27T08:10:43.863Z,53.40
2019-01-27T08:13:36.388Z,54.37
2019-01-27T08:16:23.037Z,51.97
2019-01-27T08:19:24.060Z,53.53
2019-01-27T08:22:13.650Z,56.53
2019-01-27T08:25:00.516Z,47.23
2019-01-27T08:28:14.605Z,49.73
2019-01-27T08:31:01.934Z,48.97
2019-01-27T08:33:43.334Z,49.53
2019-01-27T08:36:22.449Z,49.07
2019-01-27T08:39:11.171Z,47.23
2019-01-27T08:42:00.349Z,44.67
2019-01-27T08:45:06.575Z,45.77
2019-01-27T08:47:37.509Z,41.53
2019-01-27T08:50:12.520Z,43.00
2019-01-27T08:52:43.276Z,45.40
2019-01-27T08:55:14.143Z,42.57
2019-01-27T08:57:50.217Z,43.03
2019-01-27T09:00:35.478Z,43.97
2019-01-27T09:03:29.416Z,42.73
2019-01-27T09:06:32.269Z,42.50
2019-01-27T09:09:19.647Z,39.40
2019-01-27T09:12:01.193Z,41.90
2019-01-27T09:15:01.657Z,42.70
2019-01-27T09:17:38.587Z,41.33
2019-01-27T09:20:24.512Z,46.50
2019-01-27T09:23:18.368Z,40.07
2019-01-27T09:26:11.414Z,43.13
2019-01-27T09:29:06.317Z,42.20
2019-01-27T09:32:08.016Z,40.70
2019-01-27T09:34:44.579Z,47.67
2019-01-27T09:37:40.795Z,45.97
2019-01-27T09:40:29.833Z,44.80
2019-01-27T09:43:11.368Z,48.00
2019-01-27T09:46:05.080Z,47.87
2019-01-27T09:48:55.760Z,47.50
2019-01-27T09:51:33.814Z,45.97
2019-01-27T09:54:14.692Z,45.13
2019-01-27T09:57:09.121Z,48.53
2019-01-27T10:00:00.944Z,47.23
2019-01-27T10:02:38.582Z,48.47
2019-01-27T10:05:41.308Z,48.47
2019-01-27T10:08:30.805Z,42.10
2019-01-27T10:11:26.550Z,44.00
2019-01-27T10:14:11.768Z,48.17
2019-01-27T10:16:58.911Z,41.37
2019-01-27T10:19:34.030Z,43.47
2019-01-27T10:22:16.532Z,42.90
2019-01-27T10:24:57.388Z,39.80
2019-01-27T10:27:44.385Z,39.53
2019-01-27T10:30:40.737Z,44.97
2019-01-27T10:33:23.095Z,44.40
2019-01-27T10:36:02.917Z,47.03
2019-01-27T10:38:36.788Z,42.63
2019-01-27T10:41:34.888Z,39.43
2019-01-27T10:44:20.589Z,40.27
2019-01-27T10:47:15.212Z,42.50
2019-01-27T10:50:02.488Z,38.93
2019-01-27T10:52:48.294Z,44.73
2019-01-27T10:55:30.743Z,38.23
2019-01-27T10:58:08.039Z,41.40
2019-01-27T11:00:55.558Z,40.90
2019-01-27T11:03:34.403Z,36.77
2019-01-27T11:06:28.358Z,36.80
2019-01-27T11:09:12.351Z,34.03
2019-01-27T11:12:10.829Z,36.07
2019-01-27T11:15:00.651Z,37.00
2019-01-27T11:17:38.119Z,37.50
2019-01-27T11:20:15.328Z,35.50
2019-01-27T11:23:02.785Z,35.33
2019-01-27T11:25:40.771Z,34.90
2019-01-27T11:28:24.726Z,34.10
2019-01-27T11:31:12.043Z,30.30
2019-01-27T11:34:15.919Z,32.43
2019-01-27T11:37:11.860Z,30.27
2019-01-27T11:39:59.708Z,30.40
2019-01-27T11:42:44.034Z,33.07
2019-01-27T11:45:21.943Z,31.07
2019-01-27T11:48:09.758Z,32.30
2019-01-27T11:50:46.598Z,30.47
2019-01-27T11:53:16.160Z,31.83
2019-01-27T11:55:45.756Z,29.77
2019-01-27T11:58:16.142Z,31.07
2019-01-27T12:00:48.700Z,31.20
2019-01-27T12:03:18.537Z,31.20
2019-01-27T12:05:47.853Z,32.27
2019-01-27T12:08:17.546Z,29.80
2019-01-27T12:10:48.933Z,29.00
2019-01-27T12:13:18.850Z,32.30
2019-01-27T12:15:49.097Z,31.30
2019-01-27T12:18:26.405Z,29.57
2019-01-27T12:20:59.790Z,31.60
2019-01-27T12:23:30.943Z,30.63
2019-01-27T12:26:04.483Z,28.70
2019-01-27T12:28:34.310Z,30.70
2019-01-27T12:31:03.583Z,26.57
2019-01-27T12:33:33.634Z,29.67
2019-01-27T12:36:04.566Z,28.13
2019-01-27T12:38:34.489Z,28.77
2019-01-27T12:41:05.418Z,30.50
2019-01-27T12:43:41.675Z,31.97
2019-01-27T12:46:06.274Z,30.47
2019-01-27T12:48:36.270Z,27.47
2019-01-27T12:51:06.632Z,26.70
2019-01-27T12:53:36.794Z,25.33
2019-01-27T12:56:09.255Z,27.87
2019-01-27T12:58:39.069Z,25.50
2019-01-27T13:01:11.492Z,23.97
2019-01-27T13:03:41.663Z,25.50
2019-01-27T13:06:11.977Z,24.10
2019-01-27T13:08:42.325Z,22.07
2019-01-27T13:11:14.517Z,21.83
2019-01-27T13:13:47.768Z,20.47
2019-01-27T13:16:19.758Z,21.30
2019-01-27T13:18:54.812Z,24.63
2019-01-27T13:21:29.879Z,20.90
2019-01-27T13:24:03.322Z,21.50
2019-01-27T13:26:33.301Z,21.63
2019-01-27T13:29:08.281Z,22.63
2019-01-27T13:31:39.117Z,20.47
2019-01-27T13:34:21.564Z,22.43
2019-01-27T13:36:52.534Z,20.63
2019-01-27T13:39:38.543Z,23.37
2019-01-27T13:42:05.888Z,24.43
2019-01-27T13:44:35.127Z,23.70
2019-01-27T13:47:05.413Z,21.00
2019-01-27T13:49:40.666Z,24.83
2019-01-27T13:52:10.714Z,24.33
2019-01-27T13:54:39.822Z,23.53
2019-01-27T13:57:09.021Z,23.23
2019-01-27T13:59:38.919Z,23.23
2019-01-27T14:02:08.132Z,22.57
2019-01-27T14:04:37.821Z,21.13
2019-01-27T14:07:08.064Z,23.03
2019-01-27T14:09:37.364Z,23.93
2019-01-27T14:12:06.661Z,23.57
2019-01-27T14:14:36.434Z,22.67
2019-01-27T14:17:06.393Z,24.73
2019-01-27T14:19:36.034Z,24.93
2019-01-27T14:22:05.858Z,21.33
2019-01-27T14:24:35.658Z,23.77
2019-01-27T14:27:05.474Z,24.20
2019-01-27T14:29:35.182Z,25.13
2019-01-27T14:32:04.465Z,24.00
2019-01-27T14:34:34.154Z,21.30
2019-01-27T14:37:03.893Z,21.60
2019-01-27T14:39:33.960Z,21.83
2019-01-27T14:42:03.756Z,20.63
2019-01-27T14:44:33.656Z,20.77
2019-01-27T14:47:03.461Z,20.30
2019-01-27T14:49:33.268Z,21.67
2019-01-27T14:52:03.032Z,20.67
2019-01-27T14:54:32.653Z,19.63
2019-01-27T14:57:01.829Z,19.50
2019-01-27T14:59:31.471Z,21.87
2019-01-27T15:02:01.202Z,20.77
2019-01-27T15:04:30.602Z,19.50
2019-01-27T15:06:59.794Z,22.83
2019-01-27T15:09:29.415Z,20.43
2019-01-27T15:11:59.108Z,17.33
2019-01-27T15:14:28.835Z,20.23
2019-01-27T15:16:58.564Z,18.57
2019-01-27T15:19:27.988Z,20.33
2019-01-27T15:21:57.236Z,18.37
2019-01-27T15:24:26.542Z,18.10
2019-01-27T15:26:56.459Z,15.10
2019-01-27T15:29:25.819Z,17.73
2019-01-27T15:31:55.387Z,17.83
2019-01-27T15:34:24.624Z,18.17
2019-01-27T15:36:54.162Z,22.87
2019-01-27T15:39:23.925Z,17.60
2019-01-27T15:41:54.129Z,18.23
2019-01-27T15:44:23.422Z,18.60
2019-01-27T15:46:54.046Z,18.27
2019-01-27T15:49:23.737Z,16.17
2019-01-27T15:51:53.430Z,17.93
2019-01-27T15:54:23.246Z,16.73
2019-01-27T15:56:53.114Z,16.90
2019-01-27T15:59:22.781Z,20.40
2019-01-27T16:01:51.978Z,18.03
2019-01-27T16:04:21.670Z,19.57
2019-01-27T16:06:51.438Z,20.90
2019-01-27T16:09:20.760Z,22.87
2019-01-27T16:11:50.570Z,20.90
2019-01-27T16:14:19.943Z,20.30
2019-01-27T16:16:49.826Z,18.77
2019-01-27T16:19:19.175Z,20.00
2019-01-27T16:21:48.523Z,20.90
2019-01-27T16:24:25.750Z,18.33
2019-01-27T16:26:55.926Z,20.00
2019-01-27T16:29:44.823Z,18.80
2019-01-27T16:32:37.674Z,18.73
2019-01-27T16:35:12.822Z,18.97
2019-01-27T16:37:42.827Z,20.47
2019-01-27T16:40:13.598Z,19.13
2019-01-27T16:42:42.824Z,17.90
2019-01-27T16:45:14.105Z,18.57
2019-01-27T16:47:43.903Z,17.80
2019-01-27T16:50:15.564Z,20.47
2019-01-27T16:52:45.437Z,19.90
2019-01-27T16:55:15.645Z,18.50
2019-01-27T16:57:46.828Z,16.33
2019-01-27T17:00:17.546Z,15.97
2019-01-27T17:02:47.253Z,15.43
2019-01-27T17:05:16.785Z,18.07
2019-01-27T17:07:46.519Z,17.97
2019-01-27T17:10:17.323Z,17.23
2019-01-27T17:12:48.284Z,16.43
2019-01-27T17:15:19.571Z,15.97
2019-01-27T17:17:49.377Z,15.17
2019-01-27T17:20:18.706Z,15.30
2019-01-27T17:22:48.434Z,16.47
2019-01-27T17:25:18.313Z,15.00
2019-01-27T17:27:48.292Z,14.07
2019-01-27T17:30:18.364Z,15.83
2019-01-27T17:32:47.571Z,16.43
2019-01-27T17:35:17.700Z,16.80
2019-01-27T17:37:47.461Z,17.83
2019-01-27T17:40:16.976Z,17.83
2019-01-27T17:42:46.786Z,18.17
2019-01-27T17:45:16.874Z,19.03
2019-01-27T17:47:46.654Z,21.17
2019-01-27T17:50:16.881Z,16.87
2019-01-27T17:52:46.209Z,18.20
2019-01-27T17:55:34.939Z,18.70
2019-01-27T17:58:21.902Z,20.93
2019-01-27T18:01:17.018Z,20.70
2019-01-27T18:03:54.972Z,17.27
2019-01-27T18:06:32.197Z,18.97
2019-01-27T18:09:11.544Z,17.73
2019-01-27T18:11:44.938Z,18.73
2019-01-27T18:14:21.617Z,18.27
2019-01-27T18:16:53.178Z,20.33
2019-01-27T18:19:24.170Z,17.57
2019-01-27T18:21:54.204Z,17.83
2019-01-27T18:24:25.596Z,20.30
2019-01-27T18:26:55.654Z,17.70
2019-01-27T18:29:26.145Z,18.97
2019-01-27T18:31:56.595Z,20.67
2019-01-27T18:34:29.322Z,20.50
2019-01-27T18:37:00.051Z,21.23
2019-01-27T18:39:31.928Z,22.50
2019-01-27T18:42:02.634Z,20.63
2019-01-27T18:44:55.633Z,21.80
2019-01-27T18:50:56.758Z,25.33
2019-01-27T18:53:34.115Z,21.30
2019-01-27T18:56:18.055Z,21.70
2019-01-27T18:59:13.179Z,22.30
2019-01-27T19:02:00.948Z,24.77
2019-01-27T19:04:49.523Z,24.00
2019-01-27T19:07:50.188Z,26.33
2019-01-27T19:10:30.850Z,26.27
2019-01-27T19:13:19.661Z,25.73
2019-01-27T19:16:06.940Z,27.50
2019-01-27T19:18:54.332Z,29.43
2019-01-27T19:21:48.658Z,29.33
2019-01-27T19:24:31.494Z,29.70
2019-01-27T19:27:18.647Z,30.33
2019-01-27T19:30:10.021Z,29.23
2019-01-27T19:33:04.623Z,31.30
2019-01-27T19:36:02.365Z,31.80
2019-01-27T19:38:52.388Z,34.37
2019-01-27T19:41:49.691Z,34.63
2019-01-27T19:44:28.213Z,33.97
2019-01-27T19:47:09.168Z,32.30
2019-01-27T19:49:49.787Z,35.57
2019-01-27T19:52:46.793Z,34.33
2019-01-27T19:55:38.205Z,33.57
2019-01-27T19:58:25.016Z,34.17
2019-01-27T20:01:05.682Z,33.43
2019-01-27T20:03:44.806Z,36.33
2019-01-27T20:06:24.834Z,32.73
2019-01-27T20:09:12.389Z,37.10
2019-01-27T20:11:58.947Z,40.40
2019-01-27T20:14:50.414Z,42.07
2019-01-27T20:17:30.531Z,42.67
2019-01-27T20:20:22.420Z,43.33
2019-01-27T20:23:14.235Z,39.87
2019-01-27T20:25:53.451Z,44.97
2019-01-27T20:28:41.175Z,49.90
2019-01-27T20:31:29.911Z,47.87
2019-01-27T20:34:07.913Z,47.40
2019-01-27T20:36:55.313Z,46.30
2019-01-27T20:39:49.634Z,45.83
2019-01-27T20:42:53.006Z,45.87
2019-01-27T20:45:29.332Z,46.30
2019-01-27T20:48:06.376Z,48.47
2019-01-27T20:50:46.561Z,45.40
2019-01-27T20:53:22.435Z,43.57
2019-01-27T20:56:10.830Z,45.60
2019-01-27T20:59:02.699Z,43.20
2019-01-27T21:01:54.540Z,43.37
2019-01-27T21:04:35.139Z,45.07
2019-01-27T21:07:15.968Z,43.47
2019-01-27T21:10:04.413Z,40.67
2019-01-27T21:12:45.595Z,41.37
2019-01-27T21:15:35.355Z,44.63
2019-01-27T21:18:13.902Z,43.60
2019-01-27T21:20:43.598Z,40.93
2019-01-27T21:23:13.308Z,41.70
2019-01-27T21:25:43.068Z,41.13
2019-01-27T21:28:31.608Z,44.90
2019-01-27T21:31:00.734Z,40.60
2019-01-27T21:33:30.000Z,42.87
2019-01-27T21:35:59.588Z,43.57
2019-01-27T21:38:29.066Z,39.27
2019-01-27T21:40:58.234Z,37.33
2019-01-27T21:43:27.935Z,42.23
2019-01-27T21:45:57.773Z,39.40
2019-01-27T21:48:27.061Z,41.80
2019-01-27T21:50:56.763Z,38.50
2019-01-27T21:53:26.043Z,37.67
2019-01-27T21:55:56.274Z,40.97
2019-01-27T21:58:25.497Z,39.23
2019-01-27T22:00:55.242Z,36.47
2019-01-27T22:03:24.498Z,36.37
2019-01-27T22:05:54.161Z,35.90
2019-01-27T22:08:23.802Z,36.60
2019-01-27T22:10:53.139Z,41.10
2019-01-27T22:13:22.694Z,37.50
2019-01-27T22:15:51.952Z,39.40
2019-01-27T22:18:21.477Z,35.67
2019-01-27T22:20:50.735Z,39.70
2019-01-27T22:23:20.475Z,37.20
2019-01-27T22:25:49.737Z,38.23
2019-01-27T22:28:18.938Z,40.43
2019-01-27T22:30:48.065Z,39.23
2019-01-27T22:33:17.673Z,37.17
2019-01-27T22:35:47.398Z,38.50
2019-01-27T22:38:16.661Z,35.93
2019-01-27T22:40:46.266Z,39.37
2019-01-27T22:43:15.891Z,35.70
2019-01-27T22:45:45.105Z,37.00
2019-01-27T22:48:15.744Z,35.23
2019-01-27T22:50:45.551Z,34.70
2019-01-27T22:53:14.867Z,32.23
2019-01-27T22:55:44.509Z,32.80
2019-01-27T22:58:13.741Z,31.53
2019-01-27T23:00:56.013Z,30.57
2019-01-27T23:03:25.341Z,32.17
2019-01-27T23:05:54.510Z,31.80
2019-01-27T23:08:24.304Z,31.10
2019-01-27T23:10:53.949Z,31.07
2019-01-27T23:13:23.781Z,28.20
2019-01-27T23:15:53.563Z,30.37
2019-01-27T23:18:22.761Z,30.90
2019-01-27T23:20:52.350Z,31.63
2019-01-27T23:23:21.595Z,30.93
2019-01-27T23:25:52.375Z,30.23
2019-01-27T23:28:22.027Z,31.77
2019-01-27T23:30:51.435Z,31.00
2019-01-27T23:33:20.600Z,27.97
2019-01-27T23:35:49.839Z,31.33
2019-01-27T23:38:19.459Z,32.53
2019-01-27T23:40:48.660Z,32.80
2019-01-27T23:43:18.213Z,31.40
2019-01-27T23:45:47.584Z,31.20
2019-01-27T23:48:17.145Z,31.60
2019-01-27T23:50:46.857Z,33.23
2019-01-27T23:53:16.527Z,29.90
2019-01-27T23:55:45.739Z,30.40
2019-01-27T23:58:16.270Z,28.57
